sensor_id;sensor_type;location;lat;lon;timestamp;temperature;humidity
5304;DHT22;2674;49.722;10.892;2022-10-20T00:01:36;6.60;99.90
5304;DHT22;2674;49.722;10.892;2022-10-20T00:04:02;6.50;99.90
5304;DHT22;2674;49.722;10.892;2022-10-20T00:06:30;6.50;99.90
5304;DHT22;2674;49.722;10.892;2022-10-20T00:08:57;6.50;99.90
5304;DHT22;2674;49.722;10.892;2022-10-20T00:11:24;6.40;99.90
5304;DHT22;2674;49.722;10.892;2022-10-20T00:13:52;6.40;99.90
5304;DHT22;2674;49.722;10.892;2022-10-20T00:16:19;6.40;99.90
5304;DHT22;2674;49.722;10.892;2022-10-20T00:18:45;6.40;99.90
5304;DHT22;2674;49.722;10.892;2022-10-20T00:21:20;6.50;99.90
5304;DHT22;2674;49.722;10.892;2022-10-20T00:23:46;6.60;99.90
5304;DHT22;2674;49.722;10.892;2022-10-20T00:26:24;6.70;99.90
5304;DHT22;2674;49.722;10.892;2022-10-20T00:28:51;6.80;99.90
5304;DHT22;2674;49.722;10.892;2022-10-20T00:31:18;6.80;99.90
5304;DHT22;2674;49.722;10.892;2022-10-20T00:33:45;6.90;99.90
5304;DHT22;2674;49.722;10.892;2022-10-20T00:36:14;6.90;99.90
5304;DHT22;2674;49.722;10.892;2022-10-20T00:38:41;6.90;99.90
5304;DHT22;2674;49.722;10.892;2022-10-20T00:41:07;6.90;99.90
5304;DHT22;2674;49.722;10.892;2022-10-20T00:46:16;6.90;99.90
5304;DHT22;2674;49.722;10.892;2022-10-20T00:48:46;6.90;99.90
5304;DHT22;2674;49.722;10.892;2022-10-20T00:51:17;6.90;99.90
5304;DHT22;2674;49.722;10.892;2022-10-20T00:53:45;6.90;99.90
5304;DHT22;2674;49.722;10.892;2022-10-20T00:56:12;6.80;99.90
5304;DHT22;2674;49.722;10.892;2022-10-20T00:58:38;6.80;99.90
5304;DHT22;2674;49.722;10.892;2022-10-20T01:01:04;6.80;99.90
5304;DHT22;2674;49.722;10.892;2022-10-20T01:03:46;6.80;99.90
5304;DHT22;2674;49.722;10.892;2022-10-20T01:06:15;6.70;99.90
5304;DHT22;2674;49.722;10.892;2022-10-20T01:08:41;6.70;99.90
5304;DHT22;2674;49.722;10.892;2022-10-20T01:11:32;6.70;99.90
5304;DHT22;2674;49.722;10.892;2022-10-20T01:17:20;6.70;99.90
5304;DHT22;2674;49.722;10.892;2022-10-20T01:25:49;6.50;99.90
5304;DHT22;2674;49.722;10.892;2022-10-20T01:28:26;6.40;99.90
5304;DHT22;2674;49.722;10.892;2022-10-20T01:30:59;6.30;99.90
5304;DHT22;2674;49.722;10.892;2022-10-20T01:33:52;6.20;99.90
5304;DHT22;2674;49.722;10.892;2022-10-20T01:36:27;6.20;99.90
5304;DHT22;2674;49.722;10.892;2022-10-20T01:39:09;6.10;99.90
5304;DHT22;2674;49.722;10.892;2022-10-20T01:41:48;6.10;99.90
5304;DHT22;2674;49.722;10.892;2022-10-20T01:44:16;6.00;99.90
5304;DHT22;2674;49.722;10.892;2022-10-20T01:46:44;6.00;99.90
5304;DHT22;2674;49.722;10.892;2022-10-20T01:49:12;6.00;99.90
5304;DHT22;2674;49.722;10.892;2022-10-20T01:51:38;5.90;99.90
5304;DHT22;2674;49.722;10.892;2022-10-20T01:54:05;5.90;99.90
5304;DHT22;2674;49.722;10.892;2022-10-20T01:56:41;5.80;99.90
5304;DHT22;2674;49.722;10.892;2022-10-20T02:02:20;5.70;99.90
5304;DHT22;2674;49.722;10.892;2022-10-20T02:07:33;5.60;99.90
5304;DHT22;2674;49.722;10.892;2022-10-20T02:10:13;5.60;99.90
5304;DHT22;2674;49.722;10.892;2022-10-20T02:12:44;5.60;99.90
5304;DHT22;2674;49.722;10.892;2022-10-20T02:15:16;5.50;99.90
5304;DHT22;2674;49.722;10.892;2022-10-20T02:17:44;5.50;99.90
5304;DHT22;2674;49.722;10.892;2022-10-20T02:20:12;5.50;99.90
5304;DHT22;2674;49.722;10.892;2022-10-20T02:22:39;5.40;99.90
5304;DHT22;2674;49.722;10.892;2022-10-20T02:25:06;5.40;99.90
5304;DHT22;2674;49.722;10.892;2022-10-20T02:27:37;5.40;99.90
5304;DHT22;2674;49.722;10.892;2022-10-20T02:30:08;5.40;99.90
5304;DHT22;2674;49.722;10.892;2022-10-20T02:32:36;5.40;99.90
5304;DHT22;2674;49.722;10.892;2022-10-20T02:35:10;5.40;99.90
5304;DHT22;2674;49.722;10.892;2022-10-20T02:37:37;5.40;99.90
5304;DHT22;2674;49.722;10.892;2022-10-20T02:40:03;5.30;99.90
5304;DHT22;2674;49.722;10.892;2022-10-20T02:42:29;5.30;99.90
5304;DHT22;2674;49.722;10.892;2022-10-20T02:44:55;5.30;99.90
5304;DHT22;2674;49.722;10.892;2022-10-20T02:47:21;5.30;99.90
5304;DHT22;2674;49.722;10.892;2022-10-20T02:49:47;5.30;99.90
5304;DHT22;2674;49.722;10.892;2022-10-20T02:52:14;5.30;99.90
5304;DHT22;2674;49.722;10.892;2022-10-20T02:54:40;5.20;99.90
5304;DHT22;2674;49.722;10.892;2022-10-20T02:57:05;5.30;99.90
5304;DHT22;2674;49.722;10.892;2022-10-20T02:59:31;5.20;99.90
5304;DHT22;2674;49.722;10.892;2022-10-20T03:01:57;5.20;99.90
5304;DHT22;2674;49.722;10.892;2022-10-20T03:04:24;5.20;99.90
5304;DHT22;2674;49.722;10.892;2022-10-20T03:06:49;5.20;99.90
5304;DHT22;2674;49.722;10.892;2022-10-20T03:09:15;5.10;99.90
5304;DHT22;2674;49.722;10.892;2022-10-20T03:11:41;5.10;99.90
5304;DHT22;2674;49.722;10.892;2022-10-20T03:14:07;5.10;99.90
5304;DHT22;2674;49.722;10.892;2022-10-20T03:16:33;5.00;99.90
5304;DHT22;2674;49.722;10.892;2022-10-20T03:18:59;5.10;99.90
5304;DHT22;2674;49.722;10.892;2022-10-20T03:21:25;5.00;99.90
5304;DHT22;2674;49.722;10.892;2022-10-20T03:23:50;5.00;99.90
5304;DHT22;2674;49.722;10.892;2022-10-20T03:26:16;5.00;99.90
5304;DHT22;2674;49.722;10.892;2022-10-20T03:28:42;5.00;99.90
5304;DHT22;2674;49.722;10.892;2022-10-20T03:31:08;4.90;99.90
5304;DHT22;2674;49.722;10.892;2022-10-20T03:33:34;4.90;99.90
5304;DHT22;2674;49.722;10.892;2022-10-20T03:36:00;4.90;99.90
5304;DHT22;2674;49.722;10.892;2022-10-20T03:38:26;4.90;99.90
5304;DHT22;2674;49.722;10.892;2022-10-20T03:40:52;5.00;99.90
5304;DHT22;2674;49.722;10.892;2022-10-20T03:43:18;5.00;99.90
5304;DHT22;2674;49.722;10.892;2022-10-20T03:45:44;4.90;99.90
5304;DHT22;2674;49.722;10.892;2022-10-20T03:48:10;4.90;99.90
5304;DHT22;2674;49.722;10.892;2022-10-20T03:50:42;4.90;99.90
5304;DHT22;2674;49.722;10.892;2022-10-20T03:53:12;4.80;99.90
5304;DHT22;2674;49.722;10.892;2022-10-20T03:55:38;4.80;99.90
5304;DHT22;2674;49.722;10.892;2022-10-20T03:58:04;4.80;99.90
5304;DHT22;2674;49.722;10.892;2022-10-20T04:00:30;4.80;99.90
5304;DHT22;2674;49.722;10.892;2022-10-20T04:02:56;4.80;99.90
5304;DHT22;2674;49.722;10.892;2022-10-20T04:05:22;4.70;99.90
5304;DHT22;2674;49.722;10.892;2022-10-20T04:07:48;4.70;99.90
5304;DHT22;2674;49.722;10.892;2022-10-20T04:10:15;4.70;99.90
5304;DHT22;2674;49.722;10.892;2022-10-20T04:12:41;4.60;99.90
5304;DHT22;2674;49.722;10.892;2022-10-20T04:15:08;4.60;99.90
5304;DHT22;2674;49.722;10.892;2022-10-20T04:17:34;4.60;99.90
5304;DHT22;2674;49.722;10.892;2022-10-20T04:20:02;4.60;99.90
5304;DHT22;2674;49.722;10.892;2022-10-20T04:22:28;4.60;99.90
5304;DHT22;2674;49.722;10.892;2022-10-20T04:24:54;4.60;99.90
5304;DHT22;2674;49.722;10.892;2022-10-20T04:27:20;4.50;99.90
5304;DHT22;2674;49.722;10.892;2022-10-20T04:29:47;4.50;99.90
5304;DHT22;2674;49.722;10.892;2022-10-20T04:32:13;4.50;99.90
5304;DHT22;2674;49.722;10.892;2022-10-20T04:34:39;4.60;99.90
5304;DHT22;2674;49.722;10.892;2022-10-20T04:37:05;4.60;99.90
5304;DHT22;2674;49.722;10.892;2022-10-20T04:39:30;4.60;99.90
5304;DHT22;2674;49.722;10.892;2022-10-20T04:41:57;4.60;99.90
5304;DHT22;2674;49.722;10.892;2022-10-20T04:44:22;4.60;99.90
5304;DHT22;2674;49.722;10.892;2022-10-20T04:46:48;4.60;99.90
5304;DHT22;2674;49.722;10.892;2022-10-20T04:49:14;4.60;99.90
5304;DHT22;2674;49.722;10.892;2022-10-20T04:51:40;4.60;99.90
5304;DHT22;2674;49.722;10.892;2022-10-20T04:54:06;4.70;99.90
5304;DHT22;2674;49.722;10.892;2022-10-20T04:56:32;4.70;99.90
5304;DHT22;2674;49.722;10.892;2022-10-20T04:58:58;4.70;99.90
5304;DHT22;2674;49.722;10.892;2022-10-20T05:01:26;4.70;99.90
5304;DHT22;2674;49.722;10.892;2022-10-20T05:03:53;4.70;99.90
5304;DHT22;2674;49.722;10.892;2022-10-20T05:06:24;4.70;99.90
5304;DHT22;2674;49.722;10.892;2022-10-20T05:08:52;4.60;99.90
5304;DHT22;2674;49.722;10.892;2022-10-20T05:11:20;4.70;99.90
5304;DHT22;2674;49.722;10.892;2022-10-20T05:13:47;4.70;99.90
5304;DHT22;2674;49.722;10.892;2022-10-20T05:16:13;4.70;99.90
5304;DHT22;2674;49.722;10.892;2022-10-20T05:18:39;4.80;99.90
5304;DHT22;2674;49.722;10.892;2022-10-20T05:21:17;4.80;99.90
5304;DHT22;2674;49.722;10.892;2022-10-20T05:23:43;4.80;99.90
5304;DHT22;2674;49.722;10.892;2022-10-20T05:26:13;4.90;99.90
5304;DHT22;2674;49.722;10.892;2022-10-20T05:28:42;4.90;99.90
5304;DHT22;2674;49.722;10.892;2022-10-20T05:31:09;4.90;99.90
5304;DHT22;2674;49.722;10.892;2022-10-20T05:33:36;4.80;99.90
5304;DHT22;2674;49.722;10.892;2022-10-20T05:36:10;4.80;99.90
5304;DHT22;2674;49.722;10.892;2022-10-20T05:38:36;4.80;99.90
5304;DHT22;2674;49.722;10.892;2022-10-20T05:41:07;4.70;99.90
5304;DHT22;2674;49.722;10.892;2022-10-20T05:43:34;4.70;99.90
5304;DHT22;2674;49.722;10.892;2022-10-20T05:46:00;4.70;99.90
5304;DHT22;2674;49.722;10.892;2022-10-20T05:48:26;4.70;99.90
5304;DHT22;2674;49.722;10.892;2022-10-20T05:50:52;4.80;99.90
5304;DHT22;2674;49.722;10.892;2022-10-20T05:53:18;4.90;99.90
5304;DHT22;2674;49.722;10.892;2022-10-20T05:55:44;4.80;99.90
5304;DHT22;2674;49.722;10.892;2022-10-20T05:58:10;5.00;99.90
5304;DHT22;2674;49.722;10.892;2022-10-20T06:00:36;5.10;99.90
5304;DHT22;2674;49.722;10.892;2022-10-20T06:03:07;5.10;99.90
5304;DHT22;2674;49.722;10.892;2022-10-20T06:05:33;5.20;99.90
5304;DHT22;2674;49.722;10.892;2022-10-20T06:07:59;5.30;99.90
5304;DHT22;2674;49.722;10.892;2022-10-20T06:10:25;5.40;99.90
5304;DHT22;2674;49.722;10.892;2022-10-20T06:12:51;5.40;99.90
5304;DHT22;2674;49.722;10.892;2022-10-20T06:15:17;5.40;99.90
5304;DHT22;2674;49.722;10.892;2022-10-20T06:17:45;5.50;99.90
5304;DHT22;2674;49.722;10.892;2022-10-20T06:20:11;5.50;99.90
5304;DHT22;2674;49.722;10.892;2022-10-20T06:22:37;5.60;99.90
5304;DHT22;2674;49.722;10.892;2022-10-20T06:25:03;5.60;99.90
5304;DHT22;2674;49.722;10.892;2022-10-20T06:27:29;5.70;99.90
5304;DHT22;2674;49.722;10.892;2022-10-20T06:29:55;5.70;99.90
5304;DHT22;2674;49.722;10.892;2022-10-20T06:32:21;5.70;99.90
5304;DHT22;2674;49.722;10.892;2022-10-20T06:34:47;5.80;99.90
5304;DHT22;2674;49.722;10.892;2022-10-20T06:37:13;5.80;99.90
5304;DHT22;2674;49.722;10.892;2022-10-20T06:39:38;5.90;99.90
5304;DHT22;2674;49.722;10.892;2022-10-20T06:42:04;6.00;99.90
5304;DHT22;2674;49.722;10.892;2022-10-20T06:44:31;6.10;99.90
5304;DHT22;2674;49.722;10.892;2022-10-20T06:46:57;6.20;99.90
5304;DHT22;2674;49.722;10.892;2022-10-20T06:49:23;6.20;99.90
5304;DHT22;2674;49.722;10.892;2022-10-20T06:51:49;6.20;99.90
5304;DHT22;2674;49.722;10.892;2022-10-20T06:54:16;6.30;99.90
5304;DHT22;2674;49.722;10.892;2022-10-20T06:56:41;6.60;99.90
5304;DHT22;2674;49.722;10.892;2022-10-20T06:59:07;6.80;99.90
5304;DHT22;2674;49.722;10.892;2022-10-20T07:01:35;7.10;99.90
5304;DHT22;2674;49.722;10.892;2022-10-20T07:04:10;7.30;99.90
5304;DHT22;2674;49.722;10.892;2022-10-20T07:06:38;7.50;99.90
5304;DHT22;2674;49.722;10.892;2022-10-20T07:09:05;7.50;99.90
5304;DHT22;2674;49.722;10.892;2022-10-20T07:11:33;7.30;99.90
5304;DHT22;2674;49.722;10.892;2022-10-20T07:14:00;7.20;99.90
5304;DHT22;2674;49.722;10.892;2022-10-20T07:16:29;7.20;99.90
5304;DHT22;2674;49.722;10.892;2022-10-20T07:18:55;7.20;99.90
5304;DHT22;2674;49.722;10.892;2022-10-20T07:21:24;7.20;99.90
5304;DHT22;2674;49.722;10.892;2022-10-20T07:23:52;7.20;99.90
5304;DHT22;2674;49.722;10.892;2022-10-20T07:28:50;7.40;99.90
5304;DHT22;2674;49.722;10.892;2022-10-20T07:33:44;7.50;99.90
5304;DHT22;2674;49.722;10.892;2022-10-20T07:36:15;7.60;99.90
5304;DHT22;2674;49.722;10.892;2022-10-20T07:38:42;7.70;99.90
5304;DHT22;2674;49.722;10.892;2022-10-20T07:41:09;7.70;99.90
5304;DHT22;2674;49.722;10.892;2022-10-20T07:43:36;7.80;99.90
5304;DHT22;2674;49.722;10.892;2022-10-20T07:46:02;7.90;99.90
5304;DHT22;2674;49.722;10.892;2022-10-20T07:48:28;8.00;99.90
5304;DHT22;2674;49.722;10.892;2022-10-20T07:51:11;8.10;99.90
5304;DHT22;2674;49.722;10.892;2022-10-20T07:53:37;8.20;99.90
5304;DHT22;2674;49.722;10.892;2022-10-20T07:56:03;8.30;99.90
5304;DHT22;2674;49.722;10.892;2022-10-20T07:58:29;8.40;99.90
5304;DHT22;2674;49.722;10.892;2022-10-20T08:00:55;8.60;99.90
5304;DHT22;2674;49.722;10.892;2022-10-20T08:03:21;8.70;99.90
5304;DHT22;2674;49.722;10.892;2022-10-20T08:05:47;8.70;99.90
5304;DHT22;2674;49.722;10.892;2022-10-20T08:08:12;8.80;99.90
5304;DHT22;2674;49.722;10.892;2022-10-20T08:10:38;8.90;99.90
5304;DHT22;2674;49.722;10.892;2022-10-20T08:13:04;9.00;99.90
5304;DHT22;2674;49.722;10.892;2022-10-20T08:15:30;9.10;99.90
5304;DHT22;2674;49.722;10.892;2022-10-20T08:17:56;9.20;99.90
5304;DHT22;2674;49.722;10.892;2022-10-20T08:20:22;9.30;99.90
5304;DHT22;2674;49.722;10.892;2022-10-20T08:22:48;9.30;99.90
5304;DHT22;2674;49.722;10.892;2022-10-20T08:25:14;9.40;99.90
5304;DHT22;2674;49.722;10.892;2022-10-20T08:27:40;9.50;99.90
5304;DHT22;2674;49.722;10.892;2022-10-20T08:30:06;9.60;99.90
5304;DHT22;2674;49.722;10.892;2022-10-20T08:32:32;9.60;99.90
5304;DHT22;2674;49.722;10.892;2022-10-20T08:34:58;9.60;99.90
5304;DHT22;2674;49.722;10.892;2022-10-20T08:37:24;9.70;99.90
5304;DHT22;2674;49.722;10.892;2022-10-20T08:39:50;9.80;99.90
5304;DHT22;2674;49.722;10.892;2022-10-20T08:42:16;9.90;99.90
5304;DHT22;2674;49.722;10.892;2022-10-20T08:44:44;10.00;99.90
5304;DHT22;2674;49.722;10.892;2022-10-20T08:47:32;10.10;99.90
5304;DHT22;2674;49.722;10.892;2022-10-20T08:50:03;10.10;99.90
5304;DHT22;2674;49.722;10.892;2022-10-20T08:52:29;10.20;99.90
5304;DHT22;2674;49.722;10.892;2022-10-20T08:54:56;10.40;99.90
5304;DHT22;2674;49.722;10.892;2022-10-20T08:57:27;10.40;99.90
5304;DHT22;2674;49.722;10.892;2022-10-20T09:00:00;10.50;99.90
5304;DHT22;2674;49.722;10.892;2022-10-20T09:02:29;10.60;99.90
5304;DHT22;2674;49.722;10.892;2022-10-20T09:05:03;10.70;99.90
5304;DHT22;2674;49.722;10.892;2022-10-20T09:07:32;10.80;99.90
5304;DHT22;2674;49.722;10.892;2022-10-20T09:10:24;10.80;99.90
5304;DHT22;2674;49.722;10.892;2022-10-20T09:12:52;11.00;99.90
5304;DHT22;2674;49.722;10.892;2022-10-20T09:15:19;11.10;99.90
5304;DHT22;2674;49.722;10.892;2022-10-20T09:18:05;11.20;99.90
5304;DHT22;2674;49.722;10.892;2022-10-20T09:20:51;11.30;99.90
5304;DHT22;2674;49.722;10.892;2022-10-20T09:23:22;11.40;99.90
5304;DHT22;2674;49.722;10.892;2022-10-20T09:25:50;11.40;99.90
5304;DHT22;2674;49.722;10.892;2022-10-20T09:28:22;11.50;99.90
5304;DHT22;2674;49.722;10.892;2022-10-20T09:30:49;11.60;99.90
5304;DHT22;2674;49.722;10.892;2022-10-20T09:33:33;11.60;99.90
5304;DHT22;2674;49.722;10.892;2022-10-20T09:36:19;11.70;99.90
5304;DHT22;2674;49.722;10.892;2022-10-20T09:38:47;11.70;99.90
5304;DHT22;2674;49.722;10.892;2022-10-20T09:41:20;11.80;99.90
5304;DHT22;2674;49.722;10.892;2022-10-20T09:46:28;12.00;99.90
5304;DHT22;2674;49.722;10.892;2022-10-20T09:48:54;12.10;99.90
5304;DHT22;2674;49.722;10.892;2022-10-20T09:51:26;12.30;99.90
5304;DHT22;2674;49.722;10.892;2022-10-20T09:53:54;12.40;99.90
5304;DHT22;2674;49.722;10.892;2022-10-20T09:56:27;12.40;99.90
5304;DHT22;2674;49.722;10.892;2022-10-20T09:58:54;12.40;99.90
5304;DHT22;2674;49.722;10.892;2022-10-20T10:01:21;12.50;99.90
5304;DHT22;2674;49.722;10.892;2022-10-20T10:03:54;12.60;99.90
5304;DHT22;2674;49.722;10.892;2022-10-20T10:06:41;12.70;99.90
5304;DHT22;2674;49.722;10.892;2022-10-20T10:09:30;12.90;99.90
5304;DHT22;2674;49.722;10.892;2022-10-20T10:14:30;13.10;99.90
5304;DHT22;2674;49.722;10.892;2022-10-20T10:16:59;13.20;99.90
5304;DHT22;2674;49.722;10.892;2022-10-20T10:19:30;13.20;99.90
5304;DHT22;2674;49.722;10.892;2022-10-20T10:22:01;13.20;99.90
5304;DHT22;2674;49.722;10.892;2022-10-20T10:24:38;13.20;99.90
5304;DHT22;2674;49.722;10.892;2022-10-20T10:29:46;13.30;99.90
5304;DHT22;2674;49.722;10.892;2022-10-20T10:32:27;13.30;99.90
5304;DHT22;2674;49.722;10.892;2022-10-20T10:35:31;13.40;99.90
5304;DHT22;2674;49.722;10.892;2022-10-20T10:37:59;13.40;99.90
5304;DHT22;2674;49.722;10.892;2022-10-20T10:40:38;13.50;99.90
5304;DHT22;2674;49.722;10.892;2022-10-20T10:43:39;13.60;99.90
5304;DHT22;2674;49.722;10.892;2022-10-20T10:46:19;13.60;99.90
5304;DHT22;2674;49.722;10.892;2022-10-20T10:49:22;13.70;99.90
5304;DHT22;2674;49.722;10.892;2022-10-20T10:52:07;13.80;99.90
5304;DHT22;2674;49.722;10.892;2022-10-20T11:00:18;14.00;99.90
5304;DHT22;2674;49.722;10.892;2022-10-20T11:02:58;14.00;99.90
5304;DHT22;2674;49.722;10.892;2022-10-20T11:08:17;14.20;99.90
5304;DHT22;2674;49.722;10.892;2022-10-20T11:13:40;14.20;99.90
5304;DHT22;2674;49.722;10.892;2022-10-20T11:19:36;14.20;99.90
5304;DHT22;2674;49.722;10.892;2022-10-20T11:25:31;14.10;99.90
5304;DHT22;2674;49.722;10.892;2022-10-20T11:27:58;14.20;99.90
5304;DHT22;2674;49.722;10.892;2022-10-20T11:30:24;14.10;99.90
5304;DHT22;2674;49.722;10.892;2022-10-20T11:33:00;14.10;99.90
5304;DHT22;2674;49.722;10.892;2022-10-20T11:35:37;14.20;99.90
5304;DHT22;2674;49.722;10.892;2022-10-20T11:38:22;14.30;99.90
5304;DHT22;2674;49.722;10.892;2022-10-20T11:44:07;14.50;99.90
5304;DHT22;2674;49.722;10.892;2022-10-20T11:46:53;14.60;99.90
5304;DHT22;2674;49.722;10.892;2022-10-20T11:49:22;14.60;99.90
5304;DHT22;2674;49.722;10.892;2022-10-20T11:57:59;14.50;99.90
5304;DHT22;2674;49.722;10.892;2022-10-20T12:00:59;14.60;99.90
5304;DHT22;2674;49.722;10.892;2022-10-20T12:04:05;14.60;99.90
5304;DHT22;2674;49.722;10.892;2022-10-20T12:06:56;14.70;99.90
5304;DHT22;2674;49.722;10.892;2022-10-20T12:12:27;14.80;99.90
5304;DHT22;2674;49.722;10.892;2022-10-20T12:15:24;14.80;99.90
5304;DHT22;2674;49.722;10.892;2022-10-20T12:17:54;14.90;99.90
5304;DHT22;2674;49.722;10.892;2022-10-20T12:22:50;15.00;99.90
5304;DHT22;2674;49.722;10.892;2022-10-20T12:30:58;15.00;99.90
5304;DHT22;2674;49.722;10.892;2022-10-20T12:38:51;15.00;99.90
5304;DHT22;2674;49.722;10.892;2022-10-20T12:41:30;15.10;99.90
5304;DHT22;2674;49.722;10.892;2022-10-20T12:44:03;15.10;99.90
5304;DHT22;2674;49.722;10.892;2022-10-20T12:46:31;15.10;99.90
5304;DHT22;2674;49.722;10.892;2022-10-20T12:49:04;15.10;99.90
5304;DHT22;2674;49.722;10.892;2022-10-20T12:51:37;15.20;99.90
5304;DHT22;2674;49.722;10.892;2022-10-20T12:56:43;15.10;99.90
5304;DHT22;2674;49.722;10.892;2022-10-20T13:15:43;15.40;99.90
5304;DHT22;2674;49.722;10.892;2022-10-20T13:18:43;15.50;99.90
5304;DHT22;2674;49.722;10.892;2022-10-20T13:21:30;15.40;99.90
5304;DHT22;2674;49.722;10.892;2022-10-20T13:24:14;15.40;99.90
5304;DHT22;2674;49.722;10.892;2022-10-20T13:26:49;15.40;99.90
5304;DHT22;2674;49.722;10.892;2022-10-20T13:29:27;15.50;99.90
5304;DHT22;2674;49.722;10.892;2022-10-20T13:35:27;15.60;99.90
5304;DHT22;2674;49.722;10.892;2022-10-20T13:38:14;15.60;99.90
5304;DHT22;2674;49.722;10.892;2022-10-20T13:43:45;15.60;99.90
5304;DHT22;2674;49.722;10.892;2022-10-20T13:51:52;15.60;99.90
5304;DHT22;2674;49.722;10.892;2022-10-20T13:54:25;15.60;99.90
5304;DHT22;2674;49.722;10.892;2022-10-20T13:56:53;15.60;99.90
5304;DHT22;2674;49.722;10.892;2022-10-20T13:59:25;15.60;99.90
5304;DHT22;2674;49.722;10.892;2022-10-20T14:02:00;15.60;99.90
5304;DHT22;2674;49.722;10.892;2022-10-20T14:04:36;15.70;99.90
5304;DHT22;2674;49.722;10.892;2022-10-20T14:07:08;15.70;99.90
5304;DHT22;2674;49.722;10.892;2022-10-20T14:09:38;15.70;99.90
5304;DHT22;2674;49.722;10.892;2022-10-20T14:12:12;15.70;99.90
5304;DHT22;2674;49.722;10.892;2022-10-20T14:14:43;15.70;99.90
5304;DHT22;2674;49.722;10.892;2022-10-20T14:17:18;15.70;99.90
5304;DHT22;2674;49.722;10.892;2022-10-20T14:19:44;15.70;99.90
5304;DHT22;2674;49.722;10.892;2022-10-20T14:22:17;15.60;99.90
5304;DHT22;2674;49.722;10.892;2022-10-20T14:24:46;15.60;99.90
5304;DHT22;2674;49.722;10.892;2022-10-20T14:27:33;15.60;99.90
5304;DHT22;2674;49.722;10.892;2022-10-20T14:30:03;15.50;99.90
5304;DHT22;2674;49.722;10.892;2022-10-20T14:32:32;15.50;99.90
5304;DHT22;2674;49.722;10.892;2022-10-20T14:40:52;15.50;99.90
5304;DHT22;2674;49.722;10.892;2022-10-20T14:43:34;15.50;99.90
5304;DHT22;2674;49.722;10.892;2022-10-20T14:46:02;15.50;99.90
5304;DHT22;2674;49.722;10.892;2022-10-20T14:48:40;15.40;99.90
5304;DHT22;2674;49.722;10.892;2022-10-20T14:51:36;15.40;99.90
5304;DHT22;2674;49.722;10.892;2022-10-20T14:56:52;15.30;99.90
5304;DHT22;2674;49.722;10.892;2022-10-20T14:59:23;15.30;99.90
5304;DHT22;2674;49.722;10.892;2022-10-20T15:02:12;15.30;99.90
5304;DHT22;2674;49.722;10.892;2022-10-20T15:04:46;15.30;99.90
5304;DHT22;2674;49.722;10.892;2022-10-20T15:07:13;15.30;99.90
5304;DHT22;2674;49.722;10.892;2022-10-20T15:10:25;15.30;99.90
5304;DHT22;2674;49.722;10.892;2022-10-20T15:15:06;15.20;99.90
5304;DHT22;2674;49.722;10.892;2022-10-20T15:17:47;15.20;99.90
5304;DHT22;2674;49.722;10.892;2022-10-20T15:25:30;15.10;99.90
5304;DHT22;2674;49.722;10.892;2022-10-20T15:27:57;15.00;99.90
5304;DHT22;2674;49.722;10.892;2022-10-20T15:30:24;15.00;99.90
5304;DHT22;2674;49.722;10.892;2022-10-20T15:32:51;14.90;99.90
5304;DHT22;2674;49.722;10.892;2022-10-20T15:35:19;14.90;99.90
5304;DHT22;2674;49.722;10.892;2022-10-20T15:37:49;14.90;99.90
5304;DHT22;2674;49.722;10.892;2022-10-20T15:40:15;14.90;99.90
5304;DHT22;2674;49.722;10.892;2022-10-20T15:42:41;14.80;99.90
5304;DHT22;2674;49.722;10.892;2022-10-20T15:45:22;14.70;99.90
5304;DHT22;2674;49.722;10.892;2022-10-20T15:47:48;14.70;99.90
5304;DHT22;2674;49.722;10.892;2022-10-20T15:50:15;14.70;99.90
5304;DHT22;2674;49.722;10.892;2022-10-20T15:52:41;14.60;99.90
5304;DHT22;2674;49.722;10.892;2022-10-20T15:55:20;14.50;99.90
5304;DHT22;2674;49.722;10.892;2022-10-20T15:57:52;14.40;99.90
5304;DHT22;2674;49.722;10.892;2022-10-20T16:00:20;14.40;99.90
5304;DHT22;2674;49.722;10.892;2022-10-20T16:02:47;14.30;99.90
5304;DHT22;2674;49.722;10.892;2022-10-20T16:05:18;14.30;99.90
5304;DHT22;2674;49.722;10.892;2022-10-20T16:07:45;14.20;99.90
5304;DHT22;2674;49.722;10.892;2022-10-20T16:10:12;14.10;99.90
5304;DHT22;2674;49.722;10.892;2022-10-20T16:12:38;14.00;99.90
5304;DHT22;2674;49.722;10.892;2022-10-20T16:15:07;14.00;99.90
5304;DHT22;2674;49.722;10.892;2022-10-20T16:17:33;13.90;99.90
5304;DHT22;2674;49.722;10.892;2022-10-20T16:19:59;13.80;99.90
5304;DHT22;2674;49.722;10.892;2022-10-20T16:22:26;13.80;99.90
5304;DHT22;2674;49.722;10.892;2022-10-20T16:24:52;13.60;99.90
5304;DHT22;2674;49.722;10.892;2022-10-20T16:27:18;13.70;99.90
5304;DHT22;2674;49.722;10.892;2022-10-20T16:29:44;13.70;99.90
5304;DHT22;2674;49.722;10.892;2022-10-20T16:32:10;13.60;99.90
5304;DHT22;2674;49.722;10.892;2022-10-20T16:34:36;13.60;99.90
5304;DHT22;2674;49.722;10.892;2022-10-20T16:37:02;13.60;99.90
5304;DHT22;2674;49.722;10.892;2022-10-20T16:39:27;13.50;99.90
5304;DHT22;2674;49.722;10.892;2022-10-20T16:41:53;13.40;99.90
5304;DHT22;2674;49.722;10.892;2022-10-20T16:44:19;13.40;99.90
5304;DHT22;2674;49.722;10.892;2022-10-20T16:46:45;13.30;99.90
5304;DHT22;2674;49.722;10.892;2022-10-20T16:49:11;13.30;99.90
5304;DHT22;2674;49.722;10.892;2022-10-20T16:51:38;13.30;99.90
5304;DHT22;2674;49.722;10.892;2022-10-20T16:54:04;13.30;99.90
5304;DHT22;2674;49.722;10.892;2022-10-20T16:56:30;13.30;99.90
5304;DHT22;2674;49.722;10.892;2022-10-20T16:58:56;13.20;99.90
5304;DHT22;2674;49.722;10.892;2022-10-20T17:01:22;13.20;99.90
5304;DHT22;2674;49.722;10.892;2022-10-20T17:03:50;13.20;99.90
5304;DHT22;2674;49.722;10.892;2022-10-20T17:06:19;13.20;99.90
5304;DHT22;2674;49.722;10.892;2022-10-20T17:08:45;13.10;99.90
5304;DHT22;2674;49.722;10.892;2022-10-20T17:11:15;13.10;99.90
5304;DHT22;2674;49.722;10.892;2022-10-20T17:13:42;13.00;99.90
5304;DHT22;2674;49.722;10.892;2022-10-20T17:16:19;12.90;99.90
5304;DHT22;2674;49.722;10.892;2022-10-20T17:18:46;12.90;99.90
5304;DHT22;2674;49.722;10.892;2022-10-20T17:21:13;12.80;99.90
5304;DHT22;2674;49.722;10.892;2022-10-20T17:23:42;12.80;99.90
5304;DHT22;2674;49.722;10.892;2022-10-20T17:26:13;12.80;99.90
5304;DHT22;2674;49.722;10.892;2022-10-20T17:28:39;12.70;99.90
5304;DHT22;2674;49.722;10.892;2022-10-20T17:31:06;12.70;99.90
5304;DHT22;2674;49.722;10.892;2022-10-20T17:33:32;12.70;99.90
5304;DHT22;2674;49.722;10.892;2022-10-20T17:35:59;12.70;99.90
5304;DHT22;2674;49.722;10.892;2022-10-20T17:38:27;12.70;99.90
5304;DHT22;2674;49.722;10.892;2022-10-20T17:40:53;12.70;99.90
5304;DHT22;2674;49.722;10.892;2022-10-20T17:43:20;12.60;99.90
5304;DHT22;2674;49.722;10.892;2022-10-20T17:46:16;12.60;99.90
5304;DHT22;2674;49.722;10.892;2022-10-20T17:48:42;12.60;99.90
5304;DHT22;2674;49.722;10.892;2022-10-20T17:51:17;12.50;99.90
5304;DHT22;2674;49.722;10.892;2022-10-20T17:53:48;12.50;99.90
5304;DHT22;2674;49.722;10.892;2022-10-20T17:56:20;12.50;99.90
5304;DHT22;2674;49.722;10.892;2022-10-20T17:58:48;12.50;99.90
5304;DHT22;2674;49.722;10.892;2022-10-20T18:01:23;12.50;99.90
5304;DHT22;2674;49.722;10.892;2022-10-20T18:04:14;12.50;99.90
5304;DHT22;2674;49.722;10.892;2022-10-20T18:06:42;12.50;99.90
5304;DHT22;2674;49.722;10.892;2022-10-20T18:09:11;12.50;99.90
5304;DHT22;2674;49.722;10.892;2022-10-20T18:11:38;12.60;99.90
5304;DHT22;2674;49.722;10.892;2022-10-20T18:14:05;12.60;99.90
5304;DHT22;2674;49.722;10.892;2022-10-20T18:16:33;12.70;99.90